Boardwalk — ZGAQ7 — position and weather

sailwx.info

Track history (hours):
 
Tides and Currents Weather Stations Pressure Air Temp Water Temp Dewpoint Dewpoint Depression Visibility Wind Speed Wind Dir Waves Ship Positions

Boardwalk

Last reported at 2016-Sep-22 12:31 UTC. Time now 2016-Sep-25 15:48 UTC.
Position N 25°46' W 080°11'.

Length 50 m; draft 2.7 m.

Type: Pleasure craft. MMSI: 319031900.

Date/timePositionNaut miles runAvg speedWind from/ knotsBaromVisibWave heightAir tempDewpointWater temp
2016-Sep-22 12:31N 25°46' W 080°11'0 0.0
2016-Sep-22 04:31N 25°46' W 080°11'0 0.0
2016-Sep-22 03:28N 25°46' W 080°11'0 0.0
2016-Sep-22 00:28N 25°46' W 080°11'0 0.1
2016-Sep-21 23:31N 25°46' W 080°11'0 0.0
2016-Sep-21 22:32N 25°46' W 080°11'5 1.5
2016-Sep-21 19:33N 25°42' W 080°11'4 0.4
2016-Sep-21 09:31N 25°46' W 080°11'0 0.0
2016-Sep-21 08:31N 25°46' W 080°11'0 0.0
2016-Sep-21 05:31N 25°46' W 080°11'0 0.0
2016-Sep-21 03:31N 25°46' W 080°11'0 0.0
2016-Sep-21 02:31N 25°46' W 080°11'0 0.0
2016-Sep-20 17:33N 25°46' W 080°11'0 0.0
2016-Sep-20 14:33N 25°46' W 080°11'0 0.1
2016-Sep-20 13:33N 25°46' W 080°11'0 0.0
2016-Sep-20 10:33N 25°46' W 080°11'0 0.0
2016-Sep-20 08:33N 25°46' W 080°11'0 0.1
2016-Sep-20 07:33N 25°46' W 080°11'0 0.1
2016-Sep-20 06:33N 25°46' W 080°11'0 0.0
2016-Sep-20 02:33N 25°46' W 080°11'0 0.0
2016-Sep-19 23:33N 25°46' W 080°11'0 0.0
2016-Sep-19 19:33N 25°46' W 080°11'0 0.1
2016-Sep-19 18:18N 25°46' W 080°11'9 5.0
2016-Sep-19 16:34N 25°52' W 080°04'16 8.2
2016-Sep-19 14:34N 26°08' W 080°07'2 1.7
2016-Sep-19 13:33N 26°10' W 080°06'0 0.0
2016-Sep-19 12:24N 26°10' W 080°06'0 0.0
2016-Sep-19 11:24N 26°10' W 080°06'0 0.0
2016-Sep-19 09:27N 26°10' W 080°06'0 0.0
2016-Sep-19 07:30N 26°10' W 080°06'0 0.0
2016-Sep-19 06:30N 26°10' W 080°06'0 0.0
2016-Sep-19 03:33N 26°10' W 080°06'1 1.4
2016-Sep-19 02:33N 26°11' W 080°06'1 0.7
2016-Sep-19 00:32N 26°10' W 080°06'24 4.7
2016-Sep-18 19:27N 25°46' W 080°11'0 0.0
2016-Sep-18 15:29N 25°46' W 080°11'0 0.0
2016-Sep-18 14:32N 25°46' W 080°11'0 0.0
2016-Sep-18 10:26N 25°46' W 080°11'0 0.0
2016-Sep-18 09:32N 25°46' W 080°11'0 0.0
2016-Sep-18 02:28N 25°46' W 080°11'0 0.1
2016-Sep-18 01:16N 25°46' W 080°11'0 0.1
2016-Sep-18 00:28N 25°46' W 080°11'0 0.0
2016-Sep-17 22:33N 25°46' W 080°11'5 4.8
2016-Sep-17 21:34N 25°49' W 080°07'0 0.0
2016-Sep-17 20:33N 25°49' W 080°07'0 0.0
2016-Sep-17 19:16N 25°49' W 080°07'5 0.8
2016-Sep-17 13:33N 25°46' W 080°11'0 0.0
2016-Sep-17 12:31N 25°46' W 080°11'0 0.1
2016-Sep-17 10:28N 25°46' W 080°11'0 0.1
2016-Sep-17 09:31N 25°46' W 080°11'0 0.1
2016-Sep-17 08:31N 25°46' W 080°11'0 0.1
2016-Sep-17 07:31N 25°46' W 080°11'0 0.0
2016-Sep-17 05:31N 25°46' W 080°11'0 0.1
2016-Sep-17 04:13N 25°46' W 080°11'0 0.0
2016-Sep-17 00:31N 25°46' W 080°11'0 0.0
2016-Sep-16 17:28N 25°46' W 080°11'0 0.0
2016-Sep-16 15:22N 25°46' W 080°11'0 0.0
2016-Sep-16 12:31N 25°46' W 080°11'0 0.0
2016-Sep-16 09:22N 25°46' W 080°11'0 0.1
2016-Sep-16 07:19N 25°46' W 080°11'0 0.0
2016-Sep-16 03:31N 25°46' W 080°11'0 0.1
2016-Sep-16 02:29N 25°46' W 080°11'0 0.0
2016-Sep-16 00:31N 25°46' W 080°11'0 0.0
2016-Sep-15 22:19N 25°46' W 080°11'0 0.1
2016-Sep-15 21:33N 25°46' W 080°11'0 0.0
2016-Sep-15 20:31N 25°46' W 080°11'0 0.0
2016-Sep-15 12:33N 25°46' W 080°11'0 0.0
2016-Sep-15 11:27N 25°46' W 080°11'0 0.0
2016-Sep-15 04:18N 25°46' W 080°11'0 0.1
2016-Sep-15 03:33N 25°46' W 080°11'0 0.0
2016-Sep-15 01:33N 25°46' W 080°11'0 0.0
2016-Sep-14 22:33N 25°46' W 080°11'0 0.0
2016-Sep-14 17:32N 25°46' W 080°11'0 0.0
2016-Sep-14 13:33N 25°46' W 080°11'0 0.0
2016-Sep-14 12:24N 25°46' W 080°11'0 0.0
2016-Sep-14 10:24N 25°46' W 080°11'0 0.1
2016-Sep-14 09:30N 25°46' W 080°11'0 0.0
2016-Sep-14 08:24N 25°46' W 080°11'0 0.0
2016-Sep-14 07:33N 25°46' W 080°11'0 0.0
2016-Sep-14 06:33N 25°46' W 080°11'0 0.0
2016-Sep-14 03:30N 25°46' W 080°11'0 0.0
2016-Sep-13 22:27N 25°46' W 080°11'0 0.0
2016-Sep-13 20:18N 25°46' W 080°11'0 0.0
2016-Sep-13 18:33N 25°46' W 080°11'0 0.0
2016-Sep-13 17:33N 25°46' W 080°11'0 0.3
2016-Sep-13 16:33N 25°46' W 080°11'24 4.7
2016-Sep-13 11:25N 26°10' W 080°06'0 0.0
2016-Sep-13 09:28N 26°10' W 080°06'0 0.0
2016-Sep-13 07:28N 26°10' W 080°06'0 0.0
2016-Sep-13 06:31N 26°10' W 080°06'0 0.0
2016-Sep-13 04:28N 26°10' W 080°06'0 0.0
2016-Sep-13 02:31N 26°10' W 080°06'0 0.0
2016-Sep-12 23:22N 26°10' W 080°06'0 0.0
2016-Sep-12 21:25N 26°10' W 080°06'0 0.0
2016-Sep-12 19:28N 26°10' W 080°06'0 0.0
2016-Sep-12 17:28N 26°10' W 080°06'0 0.0
2016-Sep-12 14:31N 26°10' W 080°06'0 0.0
2016-Sep-12 13:31N 26°10' W 080°06'  
Track history (hours):
 
Tides and Currents Weather Stations Pressure Air Temp Water Temp Dewpoint Dewpoint Depression Visibility Wind Speed Wind Dir Waves Ship Positions

Boardwalk

Last reported at 2016-Sep-22 12:31 UTC. Time now 2016-Sep-25 15:48 UTC.
Position N 25°46' W 080°11'.

Length 50 m; draft 2.7 m.

Type: Pleasure craft. MMSI: 319031900.

Date/timePositionNaut miles runAvg speedWind from/ knotsBaromVisibWave heightAir tempDewpointWater temp
2016-Sep-22 12:31N 25°46' W 080°11'0 0.0
2016-Sep-22 04:31N 25°46' W 080°11'0 0.0
2016-Sep-22 03:28N 25°46' W 080°11'0 0.0
2016-Sep-22 00:28N 25°46' W 080°11'0 0.1
2016-Sep-21 23:31N 25°46' W 080°11'0 0.0
2016-Sep-21 22:32N 25°46' W 080°11'5 1.5
2016-Sep-21 19:33N 25°42' W 080°11'4 0.4
2016-Sep-21 09:31N 25°46' W 080°11'0 0.0
2016-Sep-21 08:31N 25°46' W 080°11'0 0.0
2016-Sep-21 05:31N 25°46' W 080°11'0 0.0
2016-Sep-21 03:31N 25°46' W 080°11'0 0.0
2016-Sep-21 02:31N 25°46' W 080°11'0 0.0
2016-Sep-20 17:33N 25°46' W 080°11'0 0.0
2016-Sep-20 14:33N 25°46' W 080°11'0 0.1
2016-Sep-20 13:33N 25°46' W 080°11'0 0.0
2016-Sep-20 10:33N 25°46' W 080°11'0 0.0
2016-Sep-20 08:33N 25°46' W 080°11'0 0.1
2016-Sep-20 07:33N 25°46' W 080°11'0 0.1
2016-Sep-20 06:33N 25°46' W 080°11'0 0.0
2016-Sep-20 02:33N 25°46' W 080°11'0 0.0
2016-Sep-19 23:33N 25°46' W 080°11'0 0.0
2016-Sep-19 19:33N 25°46' W 080°11'0 0.1
2016-Sep-19 18:18N 25°46' W 080°11'9 5.0
2016-Sep-19 16:34N 25°52' W 080°04'16 8.2
2016-Sep-19 14:34N 26°08' W 080°07'2 1.7
2016-Sep-19 13:33N 26°10' W 080°06'0 0.0
2016-Sep-19 12:24N 26°10' W 080°06'0 0.0
2016-Sep-19 11:24N 26°10' W 080°06'0 0.0
2016-Sep-19 09:27N 26°10' W 080°06'0 0.0
2016-Sep-19 07:30N 26°10' W 080°06'0 0.0
2016-Sep-19 06:30N 26°10' W 080°06'0 0.0
2016-Sep-19 03:33N 26°10' W 080°06'1 1.4
2016-Sep-19 02:33N 26°11' W 080°06'1 0.7
2016-Sep-19 00:32N 26°10' W 080°06'24 4.7
2016-Sep-18 19:27N 25°46' W 080°11'0 0.0
2016-Sep-18 15:29N 25°46' W 080°11'0 0.0
2016-Sep-18 14:32N 25°46' W 080°11'0 0.0
2016-Sep-18 10:26N 25°46' W 080°11'0 0.0
2016-Sep-18 09:32N 25°46' W 080°11'0 0.0
2016-Sep-18 02:28N 25°46' W 080°11'0 0.1
2016-Sep-18 01:16N 25°46' W 080°11'0 0.1
2016-Sep-18 00:28N 25°46' W 080°11'0 0.0
2016-Sep-17 22:33N 25°46' W 080°11'5 4.8
2016-Sep-17 21:34N 25°49' W 080°07'0 0.0
2016-Sep-17 20:33N 25°49' W 080°07'0 0.0
2016-Sep-17 19:16N 25°49' W 080°07'5 0.8
2016-Sep-17 13:33N 25°46' W 080°11'0 0.0
2016-Sep-17 12:31N 25°46' W 080°11'0 0.1
2016-Sep-17 10:28N 25°46' W 080°11'0 0.1
2016-Sep-17 09:31N 25°46' W 080°11'0 0.1
2016-Sep-17 08:31N 25°46' W 080°11'0 0.1
2016-Sep-17 07:31N 25°46' W 080°11'0 0.0
2016-Sep-17 05:31N 25°46' W 080°11'0 0.1
2016-Sep-17 04:13N 25°46' W 080°11'0 0.0
2016-Sep-17 00:31N 25°46' W 080°11'0 0.0
2016-Sep-16 17:28N 25°46' W 080°11'0 0.0
2016-Sep-16 15:22N 25°46' W 080°11'0 0.0
2016-Sep-16 12:31N 25°46' W 080°11'0 0.0
2016-Sep-16 09:22N 25°46' W 080°11'0 0.1
2016-Sep-16 07:19N 25°46' W 080°11'0 0.0
2016-Sep-16 03:31N 25°46' W 080°11'0 0.1
2016-Sep-16 02:29N 25°46' W 080°11'0 0.0
2016-Sep-16 00:31N 25°46' W 080°11'0 0.0
2016-Sep-15 22:19N 25°46' W 080°11'0 0.1
2016-Sep-15 21:33N 25°46' W 080°11'0 0.0
2016-Sep-15 20:31N 25°46' W 080°11'0 0.0
2016-Sep-15 12:33N 25°46' W 080°11'0 0.0
2016-Sep-15 11:27N 25°46' W 080°11'0 0.0
2016-Sep-15 04:18N 25°46' W 080°11'0 0.1
2016-Sep-15 03:33N 25°46' W 080°11'0 0.0
2016-Sep-15 01:33N 25°46' W 080°11'0 0.0
2016-Sep-14 22:33N 25°46' W 080°11'0 0.0
2016-Sep-14 17:32N 25°46' W 080°11'0 0.0
2016-Sep-14 13:33N 25°46' W 080°11'0 0.0
2016-Sep-14 12:24N 25°46' W 080°11'0 0.0
2016-Sep-14 10:24N 25°46' W 080°11'0 0.1
2016-Sep-14 09:30N 25°46' W 080°11'0 0.0
2016-Sep-14 08:24N 25°46' W 080°11'0 0.0
2016-Sep-14 07:33N 25°46' W 080°11'0 0.0
2016-Sep-14 06:33N 25°46' W 080°11'0 0.0
2016-Sep-14 03:30N 25°46' W 080°11'0 0.0
2016-Sep-13 22:27N 25°46' W 080°11'0 0.0
2016-Sep-13 20:18N 25°46' W 080°11'0 0.0
2016-Sep-13 18:33N 25°46' W 080°11'0 0.0
2016-Sep-13 17:33N 25°46' W 080°11'0 0.3
2016-Sep-13 16:33N 25°46' W 080°11'24 4.7
2016-Sep-13 11:25N 26°10' W 080°06'0 0.0
2016-Sep-13 09:28N 26°10' W 080°06'0 0.0
2016-Sep-13 07:28N 26°10' W 080°06'0 0.0
2016-Sep-13 06:31N 26°10' W 080°06'0 0.0
2016-Sep-13 04:28N 26°10' W 080°06'0 0.0
2016-Sep-13 02:31N 26°10' W 080°06'0 0.0
2016-Sep-12 23:22N 26°10' W 080°06'0 0.0
2016-Sep-12 21:25N 26°10' W 080°06'0 0.0
2016-Sep-12 19:28N 26°10' W 080°06'0 0.0
2016-Sep-12 17:28N 26°10' W 080°06'0 0.0
2016-Sep-12 14:31N 26°10' W 080°06'0 0.0
2016-Sep-12 13:31N 26°10' W 080°06'  

Dump ship's entire track history